createdAt,value
2019-01-18T00:00:31.338Z,91.15
2019-01-18T00:01:31.517Z,91.62
2019-01-18T00:02:31.700Z,91.34
2019-01-18T00:03:31.882Z,91.62
2019-01-18T00:04:32.062Z,91.05
2019-01-18T00:05:32.242Z,91.34
2019-01-18T00:06:32.423Z,91.34
2019-01-18T00:07:32.599Z,90.96
2019-01-18T00:08:32.777Z,91.05
2019-01-18T00:09:32.959Z,90.39
2019-01-18T00:10:33.136Z,91.62
2019-01-18T00:11:33.311Z,91.15
2019-01-18T00:12:33.499Z,91.05
2019-01-18T00:13:33.678Z,91.34
2019-01-18T00:14:33.861Z,91.53
2019-01-18T00:15:34.042Z,90.67
2019-01-18T00:16:34.220Z,90.96
2019-01-18T00:17:34.398Z,91.62
2019-01-18T00:18:34.574Z,91.72
2019-01-18T00:19:34.756Z,91.72
2019-01-18T00:20:34.931Z,91.34
2019-01-18T00:21:35.116Z,90.96
2019-01-18T00:22:35.295Z,91.81
2019-01-18T00:23:35.474Z,91.72
2019-01-18T00:24:35.649Z,91.53
2019-01-18T00:25:35.828Z,91.72
2019-01-18T00:26:36.000Z,91.81
2019-01-18T00:27:36.189Z,91.43
2019-01-18T00:28:36.368Z,91.43
2019-01-18T00:29:36.554Z,91.62
2019-01-18T00:30:36.724Z,91.53
2019-01-18T00:31:36.902Z,92.10
2019-01-18T00:32:37.081Z,91.62
2019-01-18T00:33:37.274Z,91.72
2019-01-18T00:34:37.451Z,91.62
2019-01-18T00:35:37.643Z,91.81
2019-01-18T00:36:37.802Z,91.81
2019-01-18T00:37:37.984Z,91.24
2019-01-18T00:38:38.166Z,91.15
2019-01-18T00:39:38.342Z,91.05
2019-01-18T00:40:38.523Z,90.96
2019-01-18T00:41:38.700Z,90.96
2019-01-18T00:42:38.881Z,91.34
2019-01-18T00:43:39.074Z,91.72
2019-01-18T00:44:39.239Z,90.96
2019-01-18T00:45:39.421Z,91.43
2019-01-18T00:46:39.598Z,90.67
2019-01-18T00:47:39.774Z,91.05
2019-01-18T00:48:39.947Z,91.62
2019-01-18T00:49:40.143Z,91.53
2019-01-18T00:50:40.329Z,91.34
2019-01-18T00:51:40.503Z,91.43
2019-01-18T00:52:40.687Z,91.72
2019-01-18T00:53:40.868Z,91.53
2019-01-18T00:54:41.045Z,91.34
2019-01-18T00:55:41.218Z,91.91
2019-01-18T00:56:41.398Z,91.72
2019-01-18T00:57:41.576Z,90.86
2019-01-18T00:58:41.754Z,91.91
2019-01-18T00:59:41.936Z,92.19
2019-01-18T01:00:42.118Z,92.19
2019-01-18T01:01:42.292Z,91.91
2019-01-18T01:02:42.471Z,91.91
2019-01-18T01:03:42.657Z,91.81
2019-01-18T01:04:42.833Z,92.10
2019-01-18T01:05:43.009Z,92.00
2019-01-18T01:06:43.209Z,91.53
2019-01-18T01:07:43.371Z,92.38
2019-01-18T01:08:43.565Z,92.00
2019-01-18T01:09:43.741Z,92.38
2019-01-18T01:10:43.919Z,92.47
2019-01-18T01:11:44.102Z,92.47
2019-01-18T01:12:44.282Z,92.94
2019-01-18T01:13:44.467Z,93.23
2019-01-18T01:14:44.645Z,93.23
2019-01-18T01:15:44.818Z,93.04
2019-01-18T01:16:45.000Z,93.23
2019-01-18T01:17:45.184Z,92.85
2019-01-18T01:18:45.356Z,93.51
2019-01-18T01:19:45.538Z,93.70
2019-01-18T01:20:45.724Z,92.76
2019-01-18T01:21:45.899Z,92.94
2019-01-18T01:22:46.074Z,92.66
2019-01-18T01:23:46.252Z,92.94
2019-01-18T01:24:46.482Z,93.04
2019-01-18T01:25:46.611Z,93.04
2019-01-18T01:26:46.794Z,92.85
2019-01-18T01:27:46.973Z,93.32
2019-01-18T01:28:47.149Z,93.13
2019-01-18T01:29:47.330Z,93.04
2019-01-18T01:30:47.508Z,92.76
2019-01-18T01:31:47.689Z,93.23
2019-01-18T01:32:47.866Z,93.23
2019-01-18T01:33:48.043Z,93.99
2019-01-18T01:34:48.223Z,93.89
2019-01-18T01:35:48.403Z,93.04
2019-01-18T01:36:48.588Z,94.56
2019-01-18T01:37:48.759Z,94.18
2019-01-18T01:38:48.944Z,94.18
2019-01-18T01:39:49.122Z,93.80
2019-01-18T01:40:49.297Z,93.23
2019-01-18T01:41:49.477Z,93.80
2019-01-18T01:42:49.655Z,94.18
2019-01-18T01:43:49.839Z,93.51
2019-01-18T01:44:50.019Z,93.61
2019-01-18T01:45:50.198Z,93.89
2019-01-18T01:46:50.377Z,93.42
2019-01-18T01:47:50.570Z,93.70
2019-01-18T01:48:50.751Z,93.80
2019-01-18T01:49:50.928Z,93.70
2019-01-18T01:50:51.100Z,93.89
2019-01-18T01:51:51.278Z,93.89
2019-01-18T01:52:51.471Z,93.80
2019-01-18T01:53:51.652Z,92.94
2019-01-18T01:54:51.840Z,93.99
2019-01-18T01:55:52.013Z,94.18
2019-01-18T01:56:52.193Z,93.61
2019-01-18T01:57:52.370Z,94.08
2019-01-18T01:58:52.553Z,93.99
2019-01-18T01:59:52.733Z,93.13
2019-01-18T02:00:52.910Z,93.80
2019-01-18T02:01:53.090Z,93.89
2019-01-18T02:02:53.266Z,94.74
2019-01-18T02:03:53.445Z,94.37
2019-01-18T02:04:53.626Z,94.27
2019-01-18T02:05:53.801Z,94.74
2019-01-18T02:06:53.985Z,94.56
2019-01-18T02:07:54.171Z,93.99
2019-01-18T02:08:54.353Z,94.46
2019-01-18T02:09:54.531Z,94.08
2019-01-18T02:10:54.713Z,94.37
2019-01-18T02:11:54.887Z,94.37
2019-01-18T02:12:55.069Z,94.56
2019-01-18T02:13:55.250Z,94.74
2019-01-18T02:14:55.422Z,94.74
2019-01-18T02:15:55.597Z,94.74
2019-01-18T02:16:55.784Z,94.18
2019-01-18T02:17:56.011Z,94.46
2019-01-18T02:18:56.143Z,94.56
2019-01-18T02:19:56.326Z,93.23
2019-01-18T02:20:56.517Z,93.23
2019-01-18T02:21:56.679Z,94.18
2019-01-18T02:22:56.864Z,95.12
2019-01-18T02:23:57.036Z,94.65
2019-01-18T02:24:57.209Z,94.74
2019-01-18T02:25:57.391Z,94.74
2019-01-18T02:26:57.567Z,94.56
2019-01-18T02:27:57.756Z,94.93
2019-01-18T02:28:57.933Z,95.78
2019-01-18T02:29:58.115Z,96.64
2019-01-18T02:30:58.288Z,95.59
2019-01-18T02:31:58.488Z,95.69
2019-01-18T02:32:58.652Z,94.46
2019-01-18T02:33:58.827Z,94.56
2019-01-18T02:34:59.004Z,96.07
2019-01-18T02:35:59.185Z,95.31
2019-01-18T02:36:59.362Z,95.50
2019-01-18T02:37:59.529Z,96.07
2019-01-18T02:38:59.726Z,96.26
2019-01-18T02:39:59.894Z,95.69
2019-01-18T02:41:00.080Z,95.12
2019-01-18T02:42:00.269Z,96.07
2019-01-18T02:43:00.433Z,96.26
2019-01-18T02:44:00.617Z,95.59
2019-01-18T02:45:00.789Z,95.21
2019-01-18T02:46:00.968Z,95.69
2019-01-18T02:47:01.150Z,95.88
2019-01-18T02:48:01.339Z,94.93
2019-01-18T02:49:01.512Z,94.93
2019-01-18T02:50:01.687Z,94.56
2019-01-18T02:51:01.863Z,94.42
2019-01-18T02:52:02.047Z,94.08
2019-01-18T02:53:02.232Z,94.37
2019-01-18T02:54:02.403Z,94.56
2019-01-18T02:55:02.592Z,93.80
2019-01-18T02:56:02.759Z,93.61
2019-01-18T02:57:02.941Z,93.13
2019-01-18T02:58:03.118Z,93.70
2019-01-18T02:59:03.304Z,92.94
2019-01-18T03:00:04.958Z,92.66
2019-01-18T03:01:03.664Z,92.57
2019-01-18T03:02:03.836Z,92.76
2019-01-18T03:03:04.022Z,92.10
2019-01-18T03:04:04.194Z,93.42
2019-01-18T03:05:04.377Z,93.61
2019-01-18T03:06:04.554Z,93.51
2019-01-18T03:07:04.739Z,92.66
2019-01-18T03:08:04.913Z,92.19
2019-01-18T03:09:05.093Z,92.10
2019-01-18T03:10:05.277Z,92.00
2019-01-18T03:11:05.462Z,92.10
2019-01-18T03:12:05.651Z,92.10
2019-01-18T03:13:05.843Z,92.10
2019-01-18T03:14:06.005Z,91.72
2019-01-18T03:15:06.185Z,91.05
2019-01-18T03:16:06.369Z,91.62
2019-01-18T03:17:06.541Z,91.43
2019-01-18T03:18:06.723Z,93.61
2019-01-18T03:19:06.908Z,93.04
2019-01-18T03:20:07.089Z,93.23
2019-01-18T03:21:07.266Z,93.23
2019-01-18T03:22:07.448Z,91.15
2019-01-18T03:23:07.625Z,90.58
2019-01-18T03:24:07.806Z,90.48
2019-01-18T03:25:07.989Z,91.05
2019-01-18T03:26:08.174Z,90.86
2019-01-18T03:27:08.351Z,91.05
2019-01-18T03:28:08.529Z,91.15
2019-01-18T03:29:08.708Z,91.34
2019-01-18T03:30:18.040Z,91.05
2019-01-18T03:31:09.070Z,91.62
2019-01-18T03:32:09.246Z,90.25
2019-01-18T03:33:09.437Z,90.11
2019-01-18T03:34:09.600Z,90.58
2019-01-18T03:35:09.778Z,91.34
2019-01-18T03:36:09.963Z,91.81
2019-01-18T03:37:10.145Z,94.37
2019-01-18T03:38:10.324Z,93.99
2019-01-18T03:39:10.498Z,92.76
2019-01-18T03:40:10.682Z,93.80
2019-01-18T03:41:10.864Z,93.61
2019-01-18T03:42:11.027Z,95.50
2019-01-18T03:43:11.208Z,95.21
2019-01-18T03:44:11.387Z,96.07
2019-01-18T03:45:11.561Z,95.88
2019-01-18T03:46:11.748Z,97.20
2019-01-18T03:47:11.927Z,96.73
2019-01-18T03:48:12.107Z,96.83
2019-01-18T03:49:12.285Z,96.92
2019-01-18T03:50:12.464Z,95.88
2019-01-18T03:51:12.654Z,96.64
2019-01-18T03:52:12.828Z,96.16
2019-01-18T03:53:13.011Z,95.69
2019-01-18T03:54:13.186Z,96.07
2019-01-18T03:55:13.373Z,95.88
2019-01-18T03:56:13.556Z,96.92
2019-01-18T03:57:13.738Z,97.77
2019-01-18T03:58:13.915Z,97.96
2019-01-18T03:59:14.106Z,98.06
2019-01-18T04:00:14.281Z,96.64
2019-01-18T04:01:14.455Z,98.44
2019-01-18T04:02:14.633Z,97.02
2019-01-18T04:03:14.798Z,97.11
2019-01-18T04:04:14.994Z,96.16
2019-01-18T04:05:15.175Z,95.97
2019-01-18T04:06:15.353Z,96.35
2019-01-18T04:07:15.530Z,98.82
2019-01-18T04:08:15.716Z,97.20
2019-01-18T04:09:15.894Z,96.83
2019-01-18T04:10:16.077Z,95.50
2019-01-18T04:11:16.250Z,95.50
2019-01-18T04:12:16.427Z,96.35
2019-01-18T04:13:16.613Z,97.39
2019-01-18T04:14:16.784Z,98.25
2019-01-18T04:15:16.966Z,97.96
2019-01-18T04:16:17.148Z,97.39
2019-01-18T04:17:17.329Z,97.58
2019-01-18T04:18:17.507Z,96.45
2019-01-18T04:19:17.689Z,97.02
2019-01-18T04:20:17.863Z,97.68
2019-01-18T04:21:18.045Z,96.73
2019-01-18T04:22:18.219Z,96.83
2019-01-18T04:23:18.395Z,97.02
2019-01-18T04:24:18.577Z,96.83
2019-01-18T04:25:18.766Z,97.68
2019-01-18T04:26:18.945Z,98.44
2019-01-18T04:27:19.127Z,96.26
2019-01-18T04:28:19.309Z,98.63
2019-01-18T04:29:19.483Z,97.77
2019-01-18T04:30:19.664Z,97.39
2019-01-18T04:31:19.831Z,97.11
2019-01-18T04:32:20.019Z,96.83
2019-01-18T04:33:20.199Z,98.44
2019-01-18T04:34:20.380Z,97.87
2019-01-18T04:35:20.567Z,97.39
2019-01-18T04:36:20.738Z,97.87
2019-01-18T04:37:20.931Z,98.82
2019-01-18T04:38:21.088Z,97.77
2019-01-18T04:39:21.267Z,97.02
2019-01-18T04:40:21.453Z,97.49
2019-01-18T04:41:21.631Z,98.91
2019-01-18T04:42:21.819Z,99.10
2019-01-18T04:43:21.987Z,98.63
2019-01-18T04:44:22.176Z,97.02
2019-01-18T04:45:22.357Z,97.87
2019-01-18T04:46:22.539Z,99.43
2019-01-18T04:47:22.719Z,97.87
2019-01-18T04:48:22.902Z,99.29
2019-01-18T04:49:23.080Z,99.19
2019-01-18T04:50:23.255Z,98.82
2019-01-18T04:51:23.434Z,98.44
2019-01-18T04:52:23.612Z,98.53
2019-01-18T04:53:23.791Z,99.19
2019-01-18T04:54:23.974Z,98.34
2019-01-18T04:55:24.150Z,98.96
2019-01-18T04:56:24.335Z,99.24
2019-01-18T04:57:24.505Z,98.58
2019-01-18T04:58:24.691Z,98.48
2019-01-18T04:59:24.861Z,98.39
2019-01-18T05:00:25.040Z,99.43
2019-01-18T05:01:25.218Z,99.99
2019-01-18T05:02:25.401Z,99.99
2019-01-18T05:03:25.576Z,99.99
2019-01-18T05:04:25.761Z,99.29
2019-01-18T05:05:25.939Z,99.95
2019-01-18T05:06:26.124Z,99.99
2019-01-18T05:07:26.327Z,99.99
2019-01-18T05:08:26.480Z,99.99
2019-01-18T05:09:26.660Z,99.99
2019-01-18T05:10:26.840Z,99.99
2019-01-18T05:11:27.021Z,99.76
2019-01-18T05:12:27.194Z,99.99
2019-01-18T05:13:27.379Z,99.99
2019-01-18T05:14:27.557Z,99.99
2019-01-18T05:15:27.825Z,99.90
2019-01-18T05:16:27.923Z,99.99
2019-01-18T05:17:28.105Z,99.99
2019-01-18T05:18:28.287Z,99.99
2019-01-18T05:19:28.468Z,99.99
2019-01-18T05:20:28.651Z,99.99
2019-01-18T05:21:28.825Z,99.99
2019-01-18T05:22:29.013Z,99.99
2019-01-18T05:23:29.184Z,99.99
2019-01-18T05:24:29.365Z,99.99
2019-01-18T05:25:29.543Z,99.99
2019-01-18T05:26:29.720Z,99.99
2019-01-18T05:27:29.897Z,99.99
2019-01-18T05:28:30.079Z,99.99
2019-01-18T05:29:30.254Z,99.99
2019-01-18T05:30:30.428Z,99.99
2019-01-18T05:31:30.610Z,99.99
2019-01-18T05:32:30.792Z,99.99
2019-01-18T05:33:30.969Z,99.99
2019-01-18T05:34:31.147Z,99.99
2019-01-18T05:35:31.326Z,99.99
2019-01-18T05:36:31.506Z,99.99
2019-01-18T05:37:31.682Z,99.99
2019-01-18T05:38:31.859Z,99.99
2019-01-18T05:39:32.041Z,99.99
2019-01-18T05:40:32.222Z,99.99
2019-01-18T05:41:32.391Z,99.99
2019-01-18T05:42:32.570Z,99.99
2019-01-18T05:43:32.753Z,99.99
2019-01-18T05:44:32.928Z,99.99
2019-01-18T05:45:33.107Z,99.99
2019-01-18T05:46:33.286Z,99.99
2019-01-18T05:47:33.465Z,99.99
2019-01-18T05:48:33.646Z,99.99
2019-01-18T05:49:33.824Z,99.99
2019-01-18T05:50:34.001Z,99.99
2019-01-18T05:51:34.178Z,99.99
2019-01-18T05:52:34.358Z,99.99
2019-01-18T05:53:34.533Z,99.99
2019-01-18T05:54:34.724Z,99.99
2019-01-18T05:55:35.162Z,99.99
2019-01-18T05:56:35.089Z,99.99
2019-01-18T05:57:35.281Z,99.99
2019-01-18T05:58:35.449Z,99.99
2019-01-18T05:59:35.629Z,99.99
2019-01-18T06:00:35.818Z,99.99
2019-01-18T06:01:35.992Z,99.99
2019-01-18T06:02:36.171Z,99.99
2019-01-18T06:03:36.346Z,99.99
2019-01-18T06:04:36.526Z,99.99
2019-01-18T06:05:36.697Z,99.99
2019-01-18T06:06:36.877Z,99.99
2019-01-18T06:07:37.058Z,99.99
2019-01-18T06:08:37.234Z,99.99
2019-01-18T06:09:37.422Z,99.99
2019-01-18T06:10:37.613Z,99.99
2019-01-18T06:11:37.782Z,99.99
2019-01-18T06:12:38.014Z,99.99
2019-01-18T06:13:38.189Z,99.99
2019-01-18T06:14:38.370Z,99.99
2019-01-18T06:15:38.547Z,99.99
2019-01-18T06:16:38.724Z,99.99
2019-01-18T06:17:38.902Z,99.99
2019-01-18T06:18:39.081Z,99.99
2019-01-18T06:19:39.260Z,99.99
2019-01-18T06:20:39.443Z,99.99
2019-01-18T06:21:39.620Z,99.99
2019-01-18T06:22:39.794Z,99.14
2019-01-18T06:23:39.985Z,98.66
2019-01-18T06:24:40.162Z,98.28
2019-01-18T06:25:40.337Z,98.95
2019-01-18T06:26:40.527Z,98.57
2019-01-18T06:27:40.691Z,97.72
2019-01-18T06:28:40.868Z,97.44
2019-01-18T06:29:41.069Z,97.63
2019-01-18T06:30:41.241Z,96.49
2019-01-18T06:31:41.420Z,96.49
2019-01-18T06:32:41.598Z,97.06
2019-01-18T06:33:41.782Z,96.11
2019-01-18T06:34:41.964Z,94.98
2019-01-18T06:35:42.140Z,95.92
2019-01-18T06:36:42.324Z,95.54
2019-01-18T06:37:42.495Z,95.54
2019-01-18T06:38:42.676Z,95.26
2019-01-18T06:39:42.846Z,95.17
2019-01-18T06:40:43.024Z,94.51
2019-01-18T06:41:43.213Z,95.54
2019-01-18T06:42:43.397Z,94.60
2019-01-18T06:43:43.568Z,95.07
2019-01-18T06:44:43.747Z,94.22
2019-01-18T06:45:43.924Z,94.22
2019-01-18T06:46:44.110Z,93.75
2019-01-18T06:47:44.284Z,93.66
2019-01-18T06:48:44.467Z,94.13
2019-01-18T06:49:44.641Z,93.94
2019-01-18T06:50:44.821Z,93.84
2019-01-18T06:51:45.002Z,93.94
2019-01-18T06:52:45.189Z,93.09
2019-01-18T06:53:45.362Z,94.13
2019-01-18T06:54:45.557Z,92.90
2019-01-18T06:55:45.735Z,92.90
2019-01-18T06:56:45.912Z,92.90
2019-01-18T06:57:46.087Z,93.09
2019-01-18T06:58:46.268Z,92.61
2019-01-18T06:59:46.447Z,92.00
2019-01-18T07:00:46.618Z,92.14
2019-01-18T07:01:46.810Z,92.05
2019-01-18T07:02:46.986Z,92.24
2019-01-18T07:03:47.167Z,91.77
2019-01-18T07:04:47.346Z,91.86
2019-01-18T07:05:47.522Z,91.77
2019-01-18T07:06:47.707Z,92.14
2019-01-18T07:07:47.886Z,92.05
2019-01-18T07:08:48.079Z,92.14
2019-01-18T07:09:48.263Z,91.91
2019-01-18T07:10:48.439Z,92.10
2019-01-18T07:11:48.618Z,92.29
2019-01-18T07:12:48.790Z,91.72
2019-01-18T07:13:48.969Z,91.82
2019-01-18T07:14:49.175Z,91.96
2019-01-18T07:15:49.346Z,92.00
2019-01-18T07:16:49.521Z,92.14
2019-01-18T07:17:49.701Z,92.14
2019-01-18T07:18:49.888Z,91.86
2019-01-18T07:19:50.084Z,92.43
2019-01-18T07:20:50.259Z,92.52
2019-01-18T07:21:50.429Z,92.61
2019-01-18T07:22:50.606Z,92.71
2019-01-18T07:23:50.791Z,93.47
2019-01-18T07:24:50.963Z,92.71
2019-01-18T07:25:51.140Z,92.99
2019-01-18T07:26:51.320Z,93.84
2019-01-18T07:27:51.497Z,95.17
2019-01-18T07:28:51.830Z,94.98
2019-01-18T07:29:51.860Z,95.17
2019-01-18T07:30:52.045Z,95.45
2019-01-18T07:31:52.224Z,94.89
2019-01-18T07:32:52.428Z,95.54
2019-01-18T07:33:52.578Z,95.73
2019-01-18T07:34:52.756Z,96.26
2019-01-18T07:35:52.926Z,96.45
2019-01-18T07:36:53.112Z,97.67
2019-01-18T07:37:53.284Z,97.39
2019-01-18T07:38:53.478Z,98.62
2019-01-18T07:39:53.649Z,99.43
2019-01-18T07:40:53.828Z,99.99
2019-01-18T07:41:54.013Z,99.99
2019-01-18T07:42:54.190Z,99.99
2019-01-18T07:43:54.368Z,99.99
2019-01-18T07:44:54.552Z,99.99
2019-01-18T07:45:54.738Z,99.99
2019-01-18T07:46:54.920Z,99.99
2019-01-18T07:47:55.098Z,99.99
2019-01-18T07:48:55.279Z,99.99
2019-01-18T07:49:55.461Z,99.99
2019-01-18T07:50:55.645Z,99.99
2019-01-18T07:51:55.824Z,99.99
2019-01-18T07:52:56.006Z,99.96
2019-01-18T07:53:56.189Z,98.96
2019-01-18T07:54:56.373Z,96.97
2019-01-18T07:55:56.551Z,95.98
2019-01-18T07:56:56.740Z,94.84
2019-01-18T07:57:56.930Z,92.42
2019-01-18T07:58:57.106Z,89.33
2019-01-18T07:59:57.292Z,87.43
2019-01-18T08:00:57.610Z,85.39
2019-01-18T08:01:57.662Z,82.82
2019-01-18T08:02:57.893Z,81.06
2019-01-18T08:03:58.025Z,79.25
2019-01-18T08:04:58.241Z,77.83
2019-01-18T08:05:58.422Z,76.82
2019-01-18T08:06:58.614Z,75.11
2019-01-18T08:07:58.807Z,75.02
2019-01-18T08:08:59.003Z,74.82
2019-01-18T08:09:59.191Z,74.07
2019-01-18T08:10:59.390Z,73.88
2019-01-18T08:11:59.570Z,73.59
2019-01-18T08:12:59.767Z,73.49
2019-01-18T08:13:59.958Z,72.86
2019-01-18T08:15:00.168Z,72.67
2019-01-18T08:16:00.338Z,71.82
2019-01-18T08:17:00.527Z,72.11
2019-01-18T08:18:00.725Z,72.01
2019-01-18T08:19:00.903Z,71.53
2019-01-18T08:20:01.100Z,72.01
2019-01-18T08:21:01.294Z,72.67
2019-01-18T08:22:01.491Z,71.67
2019-01-18T08:23:01.668Z,71.19
2019-01-18T08:24:01.861Z,70.01
2019-01-18T08:25:02.062Z,70.01
2019-01-18T08:26:02.258Z,72.20
2019-01-18T08:27:02.444Z,72.74
2019-01-18T08:28:02.654Z,73.40
2019-01-18T08:29:02.824Z,74.85
2019-01-18T08:30:03.020Z,77.09
2019-01-18T08:31:03.197Z,79.52
2019-01-18T08:32:03.402Z,82.60
2019-01-18T08:33:03.599Z,85.78
2019-01-18T08:34:03.793Z,88.92
2019-01-18T08:35:04.001Z,89.29
2019-01-18T08:36:04.197Z,89.67
2019-01-18T08:37:04.373Z,88.96
2019-01-18T08:38:04.584Z,87.63
2019-01-18T08:39:04.771Z,85.49
2019-01-18T08:40:04.958Z,84.01
2019-01-18T08:41:05.145Z,81.55
2019-01-18T08:42:05.343Z,80.98
2019-01-18T08:43:05.525Z,79.22
2019-01-18T08:44:05.725Z,78.27
2019-01-18T08:45:05.914Z,77.70
2019-01-18T08:46:06.116Z,77.51
2019-01-18T08:47:06.294Z,76.37
2019-01-18T08:48:06.477Z,76.21
2019-01-18T08:49:06.664Z,75.26
2019-01-18T08:50:06.862Z,74.69
2019-01-18T08:51:07.052Z,74.92
2019-01-18T08:52:07.234Z,74.79
2019-01-18T08:53:07.436Z,74.88
2019-01-18T08:54:07.629Z,75.11
2019-01-18T08:55:07.825Z,73.49
2019-01-18T08:56:08.025Z,72.83
2019-01-18T08:57:08.214Z,72.39
2019-01-18T08:58:08.406Z,71.06
2019-01-18T08:59:08.593Z,70.08
2019-01-18T09:00:08.785Z,68.62
2019-01-18T09:01:08.982Z,67.82
2019-01-18T09:02:09.211Z,68.77
2019-01-18T09:03:09.356Z,69.48
2019-01-18T09:04:09.561Z,68.52
2019-01-18T09:05:09.759Z,68.27
2019-01-18T09:06:09.948Z,67.32
2019-01-18T09:07:10.145Z,67.41
2019-01-18T09:08:10.339Z,67.03
2019-01-18T09:09:10.537Z,66.50
2019-01-18T09:10:10.743Z,66.62
2019-01-18T09:11:11.031Z,67.92
2019-01-18T09:12:11.046Z,69.63
2019-01-18T09:13:11.255Z,70.01
2019-01-18T09:14:11.428Z,70.74
2019-01-18T09:15:11.629Z,72.89
2019-01-18T09:16:11.819Z,73.55
2019-01-18T09:17:12.012Z,73.84
2019-01-18T09:18:12.202Z,74.27
2019-01-18T09:19:12.417Z,74.85
2019-01-18T09:20:12.596Z,74.98
2019-01-18T09:21:12.791Z,73.93
2019-01-18T09:22:13.000Z,73.84
2019-01-18T09:23:13.198Z,73.93
2019-01-18T09:24:13.409Z,73.55
2019-01-18T09:25:13.590Z,73.84
2019-01-18T09:26:13.802Z,72.35
2019-01-18T09:27:13.972Z,71.15
2019-01-18T09:28:14.169Z,70.58
2019-01-18T09:29:14.370Z,70.30
2019-01-18T09:30:14.555Z,69.19
2019-01-18T09:31:14.759Z,68.18
2019-01-18T09:32:14.961Z,66.18
2019-01-18T09:33:15.149Z,65.61
2019-01-18T09:34:15.349Z,65.36
2019-01-18T09:35:15.539Z,64.05
2019-01-18T09:36:15.733Z,62.94
2019-01-18T09:37:15.946Z,62.40
2019-01-18T09:38:17.966Z,61.16
2019-01-18T09:39:16.312Z,61.07
2019-01-18T09:40:16.513Z,61.32
2019-01-18T09:41:16.715Z,60.72
2019-01-18T09:42:16.909Z,61.86
2019-01-18T09:43:17.104Z,62.56
2019-01-18T09:44:17.311Z,60.78
2019-01-18T09:45:17.534Z,60.46
2019-01-18T09:46:17.703Z,60.08
2019-01-18T09:47:17.905Z,59.70
2019-01-18T09:48:18.098Z,59.60
2019-01-18T09:49:18.297Z,60.55
2019-01-18T09:50:18.510Z,60.87
2019-01-18T09:51:18.710Z,59.70
2019-01-18T09:52:18.908Z,58.77
2019-01-18T09:53:19.103Z,58.33
2019-01-18T09:54:19.298Z,57.56
2019-01-18T09:55:19.496Z,57.15
2019-01-18T09:56:19.686Z,57.28
2019-01-18T09:57:19.878Z,58.43
2019-01-18T09:58:20.081Z,59.60
2019-01-18T09:59:20.278Z,60.49
2019-01-18T10:00:20.478Z,58.36
2019-01-18T10:01:20.676Z,58.17
2019-01-18T10:02:20.872Z,57.34
2019-01-18T10:03:21.069Z,57.31
2019-01-18T10:04:21.266Z,57.89
2019-01-18T10:05:21.462Z,59.09
2019-01-18T10:06:21.658Z,59.79
2019-01-18T10:07:21.857Z,57.98
2019-01-18T10:08:22.051Z,57.53
2019-01-18T10:09:22.249Z,56.74
2019-01-18T10:10:22.451Z,56.84
2019-01-18T10:11:22.649Z,58.65
2019-01-18T10:12:22.850Z,59.06
2019-01-18T10:13:23.051Z,57.31
2019-01-18T10:14:23.242Z,57.67
2019-01-18T10:15:23.447Z,57.60
2019-01-18T10:16:23.641Z,58.07
2019-01-18T10:17:23.855Z,57.46
2019-01-18T10:18:24.041Z,57.09
2019-01-18T10:19:24.249Z,56.10
2019-01-18T10:20:24.449Z,55.19
2019-01-18T10:21:24.643Z,56.26
2019-01-18T10:22:24.839Z,55.69
2019-01-18T10:23:25.031Z,55.98
2019-01-18T10:24:25.231Z,56.26
2019-01-18T10:25:25.426Z,56.77
2019-01-18T10:26:25.629Z,56.26
2019-01-18T10:27:25.819Z,56.36
2019-01-18T10:28:26.020Z,56.10
2019-01-18T10:29:28.229Z,55.88
2019-01-18T10:30:26.413Z,56.46
2019-01-18T10:31:26.624Z,55.41
2019-01-18T10:32:26.824Z,55.12
2019-01-18T10:33:29.209Z,55.98
2019-01-18T10:34:27.249Z,56.07
2019-01-18T10:35:27.454Z,55.98
2019-01-18T10:36:27.652Z,55.31
2019-01-18T10:37:27.851Z,56.04
2019-01-18T10:38:28.050Z,57.12
2019-01-18T10:39:28.247Z,57.22
2019-01-18T10:40:28.442Z,57.15
2019-01-18T10:41:28.641Z,55.91
2019-01-18T10:42:28.848Z,55.84
2019-01-18T10:43:29.044Z,54.06
2019-01-18T10:44:29.244Z,51.97
2019-01-18T10:45:29.440Z,53.70
2019-01-18T10:46:29.637Z,57.16
2019-01-18T10:47:29.836Z,58.36
2019-01-18T10:48:30.035Z,56.96
2019-01-18T10:49:30.236Z,52.86
2019-01-18T10:50:30.431Z,52.69
2019-01-18T10:51:30.622Z,52.28
2019-01-18T10:52:30.834Z,52.86
2019-01-18T10:53:31.033Z,51.26
2019-01-18T10:54:31.241Z,49.23
2019-01-18T10:55:31.438Z,49.16
2019-01-18T10:56:31.637Z,49.47
2019-01-18T10:57:31.842Z,48.97
2019-01-18T10:58:32.043Z,49.26
2019-01-18T10:59:32.244Z,48.94
2019-01-18T11:00:32.442Z,49.13
2019-01-18T11:01:33.974Z,51.26
2019-01-18T11:02:32.847Z,52.53
2019-01-18T11:03:33.079Z,50.98
2019-01-18T11:04:33.245Z,50.76
2019-01-18T11:05:33.441Z,50.31
2019-01-18T11:06:33.637Z,49.93
2019-01-18T11:07:33.836Z,50.81
2019-01-18T11:08:34.033Z,50.24
2019-01-18T11:09:34.236Z,49.30
2019-01-18T11:10:34.434Z,48.28
2019-01-18T11:11:34.635Z,47.23
2019-01-18T11:12:34.844Z,46.67
2019-01-18T11:13:35.050Z,45.05
2019-01-18T11:14:35.254Z,44.91
2019-01-18T11:15:36.240Z,45.48
2019-01-18T11:16:35.651Z,46.68
2019-01-18T11:17:35.865Z,50.73
2019-01-18T11:18:36.070Z,54.17
2019-01-18T11:19:36.269Z,55.66
2019-01-18T11:20:36.464Z,55.57
2019-01-18T11:21:36.676Z,56.55
2019-01-18T11:22:36.888Z,56.36
2019-01-18T11:23:37.095Z,56.24
2019-01-18T11:24:37.306Z,56.90
2019-01-18T11:25:37.518Z,56.84
2019-01-18T11:26:37.712Z,55.88
2019-01-18T11:27:37.908Z,54.64
2019-01-18T11:28:38.109Z,56.04
2019-01-18T11:29:38.306Z,56.71
2019-01-18T11:30:38.514Z,56.40
2019-01-18T11:31:38.740Z,57.67
2019-01-18T11:32:38.904Z,56.97
2019-01-18T11:33:39.106Z,55.92
2019-01-18T11:34:39.294Z,56.87
2019-01-18T11:35:39.504Z,56.97
2019-01-18T11:36:39.701Z,56.78
2019-01-18T11:37:39.903Z,57.54
2019-01-18T11:38:40.099Z,56.49
2019-01-18T11:39:40.298Z,57.28
2019-01-18T11:40:40.495Z,57.35
2019-01-18T11:41:40.689Z,57.64
2019-01-18T11:42:40.881Z,55.95
2019-01-18T11:43:41.079Z,56.49
2019-01-18T11:44:41.275Z,57.45
2019-01-18T11:45:41.468Z,57.92
2019-01-18T11:46:41.671Z,57.45
2019-01-18T11:47:41.863Z,58.30
2019-01-18T11:48:42.070Z,58.18
2019-01-18T11:49:42.262Z,58.18
2019-01-18T11:50:42.456Z,58.11
2019-01-18T11:51:42.655Z,56.59
2019-01-18T11:52:42.850Z,55.83
2019-01-18T11:53:43.046Z,55.92
2019-01-18T11:54:44.142Z,56.40
2019-01-18T11:55:43.440Z,56.65
2019-01-18T11:56:43.643Z,57.17
2019-01-18T11:57:43.831Z,59.36
2019-01-18T11:58:44.032Z,61.26
2019-01-18T11:59:44.223Z,61.32
2019-01-18T12:00:44.418Z,61.99
2019-01-18T12:01:44.613Z,62.59
2019-01-18T12:02:44.801Z,62.97
2019-01-18T12:03:44.995Z,62.59
2019-01-18T12:04:45.202Z,62.49
2019-01-18T12:05:45.385Z,61.90
2019-01-18T12:06:45.578Z,61.93
2019-01-18T12:07:45.774Z,62.97
2019-01-18T12:08:45.980Z,62.94
2019-01-18T12:09:46.174Z,60.60
2019-01-18T12:10:46.369Z,60.97
2019-01-18T12:11:46.558Z,61.29
2019-01-18T12:12:46.750Z,62.05
2019-01-18T12:13:46.946Z,61.86
2019-01-18T12:14:47.135Z,60.63
2019-01-18T12:15:47.323Z,61.07
2019-01-18T12:16:47.522Z,61.35
2019-01-18T12:17:47.708Z,60.88
2019-01-18T12:18:47.909Z,60.88
2019-01-18T12:19:48.099Z,61.64
2019-01-18T12:20:48.289Z,60.78
2019-01-18T12:21:48.485Z,60.75
2019-01-18T12:22:48.679Z,61.90
2019-01-18T12:23:48.874Z,61.83
2019-01-18T12:24:49.067Z,61.74
2019-01-18T12:25:49.261Z,61.90
2019-01-18T12:26:49.460Z,62.46
2019-01-18T12:27:49.640Z,62.85
2019-01-18T12:28:49.829Z,63.07
2019-01-18T12:29:50.015Z,62.75
2019-01-18T12:30:50.204Z,62.85
2019-01-18T12:31:50.391Z,62.72
2019-01-18T12:32:50.586Z,62.65
2019-01-18T12:33:50.778Z,62.18
2019-01-18T12:34:50.970Z,61.61
2019-01-18T12:35:51.156Z,61.64
2019-01-18T12:36:52.850Z,60.41
2019-01-18T12:37:51.546Z,61.55
2019-01-18T12:38:51.737Z,61.55
2019-01-18T12:39:51.939Z,61.13
2019-01-18T12:40:52.127Z,60.94
2019-01-18T12:41:52.317Z,61.74
2019-01-18T12:42:52.507Z,62.59
2019-01-18T12:43:52.695Z,62.18
2019-01-18T12:44:52.890Z,62.21
2019-01-18T12:45:53.092Z,62.69
2019-01-18T12:46:53.297Z,62.69
2019-01-18T12:47:53.491Z,61.45
2019-01-18T12:48:53.679Z,61.90
2019-01-18T12:49:53.877Z,61.32
2019-01-18T12:50:54.083Z,60.85
2019-01-18T12:51:54.272Z,61.71
2019-01-18T12:52:54.455Z,62.21
2019-01-18T12:53:54.647Z,61.23
2019-01-18T12:54:54.837Z,61.04